Time;durP1;ratioP1;P1;durP2;ratioP2;P2;SDS_P1;SDS_P2;PMS_P1;PMS_P2;Temp;Humidity;BMP_temperature;BMP_pressure;BME280_temperature;BME280_humidity;BME280_pressure;Samples;Min_cycle;Max_cycle;Signal;HPM_P1;HPM_P2
2021/04/05 00:00:51;;;;;;;7.75;5.00;;;5.80;39.80;;;;;;6298779;22;20174;-81
2021/04/05 00:03:17;;;;;;;8.45;5.53;;;5.80;40.10;;;;;;6292650;22;20201;-81
2021/04/05 00:05:45;;;;;;;8.80;5.72;;;5.90;39.80;;;;;;6290726;22;20197;-81
2021/04/05 00:08:11;;;;;;;8.93;6.35;;;6.00;39.60;;;;;;6293015;22;20489;-80
2021/04/05 00:10:45;;;;;;;10.48;5.30;;;6.10;39.20;;;;;;6281841;22;20211;-81
2021/04/05 00:13:14;;;;;;;9.02;4.80;;;6.10;39.00;;;;;;6282909;22;20613;-80
2021/04/05 00:15:40;;;;;;;7.75;4.88;;;6.10;38.40;;;;;;6300719;22;20196;-80
2021/04/05 00:18:07;;;;;;;9.45;4.72;;;6.20;38.00;;;;;;6301746;22;20169;-81
2021/04/05 00:20:37;;;;;;;9.23;4.90;;;6.20;37.50;;;;;;6298499;22;20192;-81
2021/04/05 00:23:05;;;;;;;8.73;4.75;;;6.30;37.30;;;;;;6284798;22;20220;-81
2021/04/05 00:25:31;;;;;;;12.43;4.30;;;6.20;37.20;;;;;;6286150;22;20201;-81
2021/04/05 00:28:00;;;;;;;8.30;5.00;;;6.20;37.20;;;;;;6290751;22;20181;-82
2021/04/05 00:30:30;;;;;;;6.05;4.45;;;6.30;37.30;;;;;;6294269;22;20181;-81
2021/04/05 00:32:57;;;;;;;5.78;4.32;;;6.40;37.40;;;;;;6289364;22;20201;-79
2021/04/05 00:35:25;;;;;;;7.88;4.80;;;6.30;37.30;;;;;;6291152;22;20200;-80
2021/04/05 00:37:52;;;;;;;7.93;4.18;;;6.40;37.40;;;;;;6292633;22;20181;-81
2021/04/05 00:40:22;;;;;;;5.57;4.32;;;6.40;37.40;;;;;;6296358;22;20205;-80
2021/04/05 00:42:49;;;;;;;7.20;5.10;;;6.40;37.40;;;;;;6298086;22;20259;-78
2021/04/05 00:45:18;;;;;;;10.10;5.68;;;6.40;37.40;;;;;;6300071;22;20193;-79
2021/04/05 00:47:45;;;;;;;5.30;4.40;;;6.30;37.30;;;;;;6299261;22;20181;-79
2021/04/05 00:50:13;;;;;;;7.88;4.93;;;6.30;37.30;;;;;;6293605;22;20173;-79
2021/04/05 00:52:40;;;;;;;4.93;4.40;;;6.20;37.20;;;;;;6295041;22;20189;-80
2021/04/05 00:55:08;;;;;;;7.80;4.80;;;6.20;37.20;;;;;;6302961;22;20169;-80
2021/04/05 00:57:35;;;;;;;5.93;4.53;;;6.20;37.20;;;;;;6299567;22;20153;-79
2021/04/05 01:00:02;;;;;;;11.82;4.85;;;6.30;37.30;;;;;;6293309;22;20181;-79
2021/04/05 01:02:28;;;;;;;10.40;4.78;;;6.40;37.40;;;;;;6286174;22;20250;-80
2021/04/05 01:04:55;;;;;;;13.65;4.65;;;6.40;37.40;;;;;;6283555;22;20189;-79
2021/04/05 01:07:21;;;;;;;8.65;3.90;;;6.50;37.30;;;;;;6284301;22;20181;-79
2021/04/05 01:09:48;;;;;;;5.35;3.80;;;6.50;36.70;;;;;;6284738;22;20188;-80
2021/04/05 01:12:14;;;;;;;8.43;4.90;;;6.50;36.40;;;;;;6283606;22;20204;-80
2021/04/05 01:14:41;;;;;;;5.15;3.88;;;6.60;36.10;;;;;;6281282;22;20173;-80
2021/04/05 01:17:08;;;;;;;5.53;4.50;;;6.70;35.90;;;;;;6282286;22;20182;-80
2021/04/05 01:19:34;;;;;;;6.00;4.60;;;6.70;35.70;;;;;;6281520;22;20553;-80
2021/04/05 01:22:02;;;;;;;7.30;4.25;;;6.80;35.30;;;;;;6280185;22;20749;-80
2021/04/05 01:24:28;;;;;;;5.60;4.10;;;6.80;35.20;;;;;;6282028;22;20197;-80
2021/04/05 01:26:55;;;;;;;8.63;4.80;;;6.80;35.10;;;;;;6281930;22;20181;-79
2021/04/05 01:29:21;;;;;;;6.43;4.28;;;6.80;35.20;;;;;;6281309;22;20177;-80
2021/04/05 01:31:48;;;;;;;9.60;4.72;;;6.80;35.30;;;;;;6281490;22;20215;-80
2021/04/05 01:34:14;;;;;;;10.73;4.68;;;6.90;35.30;;;;;;6283990;22;20208;-80
2021/04/05 01:36:40;;;;;;;4.82;4.32;;;6.80;35.40;;;;;;6284252;22;20177;-79
2021/04/05 01:39:08;;;;;;;8.45;5.20;;;6.90;35.40;;;;;;6282988;22;20428;-80
2021/04/05 01:41:34;;;;;;;7.13;4.53;;;6.80;35.60;;;;;;6295609;22;20197;-78
2021/04/05 01:44:01;;;;;;;7.45;4.80;;;6.80;35.70;;;;;;6288012;22;20185;-79
2021/04/05 01:46:29;;;;;;;8.85;5.13;;;6.80;35.80;;;;;;6285382;22;20272;-78
2021/04/05 01:48:59;;;;;;;9.45;4.60;;;6.80;35.90;;;;;;6285308;22;20178;-78
2021/04/05 01:51:26;;;;;;;8.55;5.03;;;6.70;36.10;;;;;;6284267;22;20188;-78
2021/04/05 01:53:55;;;;;;;12.02;5.43;;;6.70;36.50;;;;;;6281955;22;20193;-78
2021/04/05 01:56:23;;;;;;;7.55;4.68;;;6.70;36.60;;;;;;6282962;22;20173;-79
2021/04/05 01:58:51;;;;;;;6.57;5.10;;;6.60;36.90;;;;;;6281422;22;20568;-79
2021/04/05 02:01:20;;;;;;;13.90;6.90;;;6.60;37.50;;;;;;6280326;22;20177;-79
2021/04/05 02:03:46;;;;;;;8.05;5.43;;;6.60;37.50;;;;;;6294832;22;20202;-81
2021/04/05 02:06:15;;;;;;;10.48;5.45;;;6.60;37.50;;;;;;6301506;22;20192;-81
2021/04/05 02:08:43;;;;;;;7.20;5.05;;;6.60;37.50;;;;;;6286410;22;20181;-82
2021/04/05 02:11:12;;;;;;;7.97;5.03;;;6.60;37.50;;;;;;6302403;22;20166;-81
2021/04/05 02:13:40;;;;;;;7.88;5.22;;;6.60;37.50;;;;;;6301365;22;20201;-82
2021/04/05 02:16:07;;;;;;;8.95;5.97;;;6.60;37.50;;;;;;6283892;22;20182;-81
2021/04/05 02:18:37;;;;;;;10.68;5.63;;;6.70;37.60;;;;;;6280540;22;20528;-80
2021/04/05 02:21:07;;;;;;;6.05;4.65;;;6.70;37.60;;;;;;6283206;22;20184;-80
2021/04/05 02:23:34;;;;;;;11.32;4.63;;;6.70;37.60;;;;;;6283258;22;20201;-79
2021/04/05 02:26:09;;;;;;;6.18;4.70;;;6.70;37.60;;;;;;6282549;22;20266;-80
2021/04/05 02:28:41;;;;;;;7.97;5.00;;;6.60;37.50;;;;;;6281288;22;20185;-80
2021/04/05 02:31:09;;;;;;;9.73;5.25;;;6.60;37.50;;;;;;6290153;22;20184;-80
2021/04/05 02:33:37;;;;;;;6.80;4.40;;;6.60;37.50;;;;;;6282255;22;20208;-80
2021/04/05 02:36:07;;;;;;;10.73;4.57;;;6.60;37.50;;;;;;6282412;22;20639;-80
2021/04/05 02:38:35;;;;;;;10.43;5.00;;;6.50;37.50;;;;;;6282709;22;20232;-80
2021/04/05 02:41:02;;;;;;;7.55;5.22;;;6.50;37.50;;;;;;6281680;22;20181;-80
2021/04/05 02:43:29;;;;;;;7.50;5.63;;;6.50;37.50;;;;;;6280795;22;20220;-80
2021/04/05 02:45:57;;;;;;;8.02;5.25;;;6.50;37.50;;;;;;6281558;22;20208;-80
2021/04/05 02:48:24;;;;;;;8.98;5.18;;;6.50;37.50;;;;;;6282476;22;20185;-80
2021/04/05 02:50:51;;;;;;;8.73;5.20;;;6.40;37.40;;;;;;6282543;22;20235;-80
2021/04/05 02:53:19;;;;;;;6.63;5.05;;;6.50;37.50;;;;;;6279537;22;20259;-80
2021/04/05 02:55:46;;;;;;;11.35;5.20;;;6.50;37.50;;;;;;6280453;22;20214;-80
2021/04/05 02:58:13;;;;;;;7.05;5.15;;;6.40;37.90;;;;;;6281914;22;20194;-80
2021/04/05 03:00:39;;;;;;;8.27;5.55;;;6.40;38.30;;;;;;6280992;22;20192;-81
2021/04/05 03:03:07;;;;;;;6.70;5.03;;;6.40;38.70;;;;;;6280860;22;20201;-80
2021/04/05 03:05:34;;;;;;;9.50;5.50;;;6.40;38.90;;;;;;6281219;22;20670;-80
2021/04/05 03:08:00;;;;;;;12.32;6.05;;;6.40;39.10;;;;;;6282882;22;20607;-81
2021/04/05 03:10:30;;;;;;;15.20;6.20;;;6.40;39.10;;;;;;6281741;22;20464;-80
2021/04/05 03:12:59;;;;;;;9.35;5.95;;;6.50;39.10;;;;;;6281889;22;20216;-80
2021/04/05 03:15:26;;;;;;;8.55;5.90;;;6.50;39.10;;;;;;6286987;22;20180;-80
2021/04/05 03:17:57;;;;;;;8.55;5.22;;;6.50;39.10;;;;;;6290342;22;20611;-80
2021/04/05 03:20:28;;;;;;;10.68;5.93;;;6.50;39.10;;;;;;6292767;22;20275;-81
2021/04/05 03:22:55;;;;;;;11.45;5.78;;;6.50;39.20;;;;;;6291188;22;20235;-80
2021/04/05 03:25:23;;;;;;;8.63;6.10;;;6.50;39.30;;;;;;6295741;22;20193;-81
2021/04/05 03:27:50;;;;;;;10.18;5.82;;;6.60;39.10;;;;;;6293192;22;20192;-82
2021/04/05 03:30:23;;;;;;;10.57;5.70;;;6.60;39.10;;;;;;6292758;22;20242;-81
2021/04/05 03:32:54;;;;;;;9.90;5.00;;;6.60;39.10;;;;;;6291133;22;20199;-82
2021/04/05 03:35:30;;;;;;;11.18;6.18;;;6.60;39.10;;;;;;6290782;22;20181;-83
2021/04/05 03:37:58;;;;;;;11.85;5.40;;;6.60;38.90;;;;;;6295398;22;20484;-82
2021/04/05 03:40:26;;;;;;;8.40;4.90;;;6.60;38.70;;;;;;6302630;22;20161;-82
2021/04/05 03:43:02;;;;;;;8.38;5.50;;;6.60;38.60;;;;;;6302556;22;20181;-82
2021/04/05 03:45:35;;;;;;;6.65;4.75;;;6.60;38.60;;;;;;6301070;22;20185;-79
2021/04/05 03:48:08;;;;;;;11.50;6.15;;;6.50;38.90;;;;;;6295334;22;20193;-82
2021/04/05 03:50:40;;;;;;;8.63;4.93;;;6.50;39.00;;;;;;6292772;22;20514;-81
2021/04/05 03:53:17;;;;;;;11.50;5.32;;;6.40;39.20;;;;;;6292786;22;20192;-82
2021/04/05 03:55:46;;;;;;;8.45;5.22;;;6.30;39.50;;;;;;6293330;22;20161;-81
2021/04/05 03:58:16;;;;;;;11.90;5.30;;;6.30;39.90;;;;;;6291462;22;20181;-81
2021/04/05 04:00:44;;;;;;;14.23;5.60;;;6.20;40.40;;;;;;6291176;22;20165;-83
2021/04/05 04:03:16;;;;;;;7.45;5.50;;;6.20;40.90;;;;;;6290959;22;20232;-83
2021/04/05 04:05:49;;;;;;;8.95;5.60;;;6.20;41.10;;;;;;6285244;22;20195;-82
2021/04/05 04:08:25;;;;;;;11.35;5.43;;;6.10;41.50;;;;;;6286344;22;20196;-80
2021/04/05 04:10:54;;;;;;;8.60;4.97;;;6.10;41.60;;;;;;6284740;22;20256;-80
2021/04/05 04:13:24;;;;;;;9.82;5.40;;;6.10;41.70;;;;;;6283579;22;20205;-80
2021/04/05 04:15:52;;;;;;;10.48;5.47;;;6.20;41.70;;;;;;6292478;22;20177;-81
2021/04/05 04:18:18;;;;;;;10.55;5.57;;;6.30;41.50;;;;;;6298227;22;20188;-81
2021/04/05 04:20:47;;;;;;;9.98;5.95;;;6.30;42.10;;;;;;6302054;22;20186;-82
2021/04/05 04:23:14;;;;;;;7.28;4.72;;;6.30;40.90;;;;;;6301544;22;20193;-81
2021/04/05 04:25:41;;;;;;;6.85;4.28;;;6.30;40.40;;;;;;6297512;22;20207;-80
2021/04/05 04:28:08;;;;;;;9.30;4.78;;;6.40;40.10;;;;;;6285777;22;20216;-80
2021/04/05 04:30:34;;;;;;;6.03;4.25;;;6.30;39.60;;;;;;6286888;22;20188;-81
2021/04/05 04:33:03;;;;;;;7.78;4.30;;;6.40;39.60;;;;;;6282713;22;20208;-81
2021/04/05 04:35:30;;;;;;;11.52;5.57;;;6.40;39.50;;;;;;6286091;22;20177;-81
2021/04/05 04:37:58;;;;;;;8.25;5.30;;;6.40;39.40;;;;;;6286750;22;20200;-80
2021/04/05 04:40:25;;;;;;;7.10;4.60;;;6.40;39.50;;;;;;6289232;22;20191;-81
2021/04/05 04:42:55;;;;;;;5.38;4.47;;;6.30;39.50;;;;;;6288415;22;20193;-80
2021/04/05 04:45:21;;;;;;;7.72;4.40;;;6.40;39.50;;;;;;6289252;22;20177;-81
2021/04/05 04:47:51;;;;;;;10.82;4.57;;;6.40;39.70;;;;;;6288381;22;20188;-81
2021/04/05 04:50:19;;;;;;;9.30;4.45;;;6.40;39.90;;;;;;6289388;22;20368;-80
2021/04/05 04:52:45;;;;;;;5.70;4.40;;;6.40;40.10;;;;;;6286551;22;20204;-81
2021/04/05 04:55:13;;;;;;;8.27;4.70;;;6.30;40.40;;;;;;6291101;22;20188;-80
2021/04/05 04:57:40;;;;;;;6.80;4.70;;;6.30;40.80;;;;;;6285048;22;20283;-81
2021/04/05 05:00:08;;;;;;;9.68;4.93;;;6.30;40.90;;;;;;6285916;22;20181;-80
2021/04/05 05:02:36;;;;;;;10.43;5.05;;;6.30;41.10;;;;;;6285382;22;20205;-81
2021/04/05 05:05:05;;;;;;;10.52;4.97;;;6.30;41.30;;;;;;6289048;22;20197;-80
2021/04/05 05:07:34;;;;;;;6.75;4.97;;;6.30;41.50;;;;;;6291294;22;20177;-80
2021/04/05 05:10:01;;;;;;;11.88;5.35;;;6.40;41.60;;;;;;6292434;22;20188;-80
2021/04/05 05:12:29;;;;;;;9.18;5.43;;;6.40;41.70;;;;;;6289298;22;20263;-81
2021/04/05 05:14:56;;;;;;;11.65;5.40;;;6.40;41.60;;;;;;6299472;22;20166;-81
2021/04/05 05:17:22;;;;;;;9.50;5.10;;;6.40;41.60;;;;;;6300863;22;20177;-81
2021/04/05 05:19:51;;;;;;;9.18;5.72;;;6.40;41.50;;;;;;6302027;22;20161;-81
2021/04/05 05:22:19;;;;;;;8.63;5.03;;;6.50;41.30;;;;;;6302057;22;20205;-82
2021/04/05 05:24:48;;;;;;;9.23;4.93;;;6.50;41.00;;;;;;6301696;22;20211;-81
2021/04/05 05:27:17;;;;;;;8.48;5.97;;;6.50;41.00;;;;;;6302785;22;20191;-82
2021/04/05 05:29:45;;;;;;;9.02;5.25;;;6.50;41.00;;;;;;6302032;22;20173;-80
2021/04/05 05:32:12;;;;;;;8.25;5.53;;;6.60;40.90;;;;;;6296408;22;20212;-80
2021/04/05 05:34:39;;;;;;;10.32;5.43;;;6.60;40.50;;;;;;6296386;22;20211;-80
2021/04/05 05:37:06;;;;;;;10.48;5.72;;;6.70;40.50;;;;;;6297000;22;20257;-81
2021/04/05 05:39:32;;;;;;;7.00;4.97;;;6.70;40.40;;;;;;6295033;22;20192;-81
2021/04/05 05:42:13;;;;;;;7.57;5.22;;;6.70;40.10;;;;;;6293278;22;20208;-82
2021/04/05 05:44:51;;;;;;;9.00;6.07;;;6.70;39.40;;;;;;6291266;22;20172;-82
2021/04/05 05:47:26;;;;;;;7.15;4.93;;;6.80;39.00;;;;;;6292047;22;20630;-80
2021/04/05 05:50:05;;;;;;;9.27;5.60;;;6.80;38.50;;;;;;6292431;22;20243;-80
2021/04/05 05:52:46;;;;;;;9.10;5.63;;;6.90;37.90;;;;;;6292525;22;20243;-80
2021/04/05 05:55:25;;;;;;;7.78;4.93;;;6.90;37.80;;;;;;6291172;22;20162;-80
2021/04/05 05:58:04;;;;;;;8.75;4.70;;;7.00;37.90;;;;;;6292840;22;20161;-81
2021/04/05 06:00:38;;;;;;;14.13;5.20;;;7.00;37.90;;;;;;6289941;22;20165;-81
2021/04/05 06:03:34;;;;;;;11.40;5.97;;;7.10;38.20;;;;;;6288685;22;20208;-80
2021/04/05 06:06:15;;;;;;;7.43;5.38;;;7.10;38.00;;;;;;6245303;22;20231;-81
2021/04/05 06:08:56;;;;;;;11.45;5.82;;;7.20;38.10;;;;;;6289834;22;20215;-81
2021/04/05 06:11:35;;;;;;;11.02;5.00;;;7.20;38.10;;;;;;6287746;22;20191;-81
2021/04/05 06:14:09;;;;;;;13.15;5.85;;;7.30;38.10;;;;;;6285934;22;20166;-78
2021/04/05 06:16:49;;;;;;;10.75;6.30;;;7.40;38.20;;;;;;6286955;22;20226;-80
2021/04/05 06:19:23;;;;;;;13.75;5.80;;;7.40;38.20;;;;;;6285466;22;20210;-81
2021/04/05 06:21:58;;;;;;;15.02;6.80;;;7.60;38.40;;;;;;6287151;22;20209;-81
2021/04/05 06:24:33;;;;;;;11.05;5.80;;;7.60;38.40;;;;;;6284949;22;20241;-80
2021/04/05 06:27:10;;;;;;;10.73;6.45;;;7.60;38.40;;;;;;6286881;22;20189;-80
2021/04/05 06:29:53;;;;;;;10.82;6.22;;;7.80;38.60;;;;;;6288436;22;20165;-81
2021/04/05 06:32:51;;;;;;;10.15;6.75;;;7.90;38.20;;;;;;6286341;22;20201;-80
2021/04/05 06:35:44;;;;;;;13.10;6.05;;;8.00;37.70;;;;;;6288687;22;20230;-80
2021/04/05 06:38:20;;;;;;;11.32;6.75;;;8.10;37.50;;;;;;6287853;22;20603;-81
2021/04/05 06:40:48;;;;;;;14.10;6.75;;;8.20;37.00;;;;;;6289233;22;20187;-80
2021/04/05 06:43:42;;;;;;;14.63;6.90;;;8.20;36.70;;;;;;6292327;22;20193;-81
2021/04/05 06:46:43;;;;;;;10.40;6.40;;;8.20;36.90;;;;;;6287130;22;20185;-81
2021/04/05 06:49:47;;;;;;;12.45;7.53;;;8.30;36.50;;;;;;6238809;22;20180;-81
2021/04/05 06:52:38;;;;;;;10.55;6.22;;;8.40;36.00;;;;;;6289262;22;20242;-81
2021/04/05 06:55:26;;;;;;;10.77;5.90;;;8.40;35.50;;;;;;6292494;22;20170;-81
2021/04/05 06:58:12;;;;;;;12.93;6.07;;;8.50;35.30;;;;;;6283535;22;20626;-81
2021/04/05 07:00:53;;;;;;;13.18;6.95;;;8.60;35.60;;;;;;6287341;22;20166;-81
2021/04/05 07:03:37;;;;;;;10.07;4.95;;;8.60;34.30;;;;;;6286760;22;20303;-81
2021/04/05 07:06:21;;;;;;;7.90;5.40;;;8.60;34.30;;;;;;6286829;22;20192;-81
2021/04/05 07:08:58;;;;;;;12.15;6.18;;;8.80;34.40;;;;;;6289795;22;20172;-82
2021/04/05 07:11:34;;;;;;;10.00;5.85;;;8.90;34.00;;;;;;6293606;22;20223;-80
2021/04/05 07:14:09;;;;;;;8.43;5.75;;;9.00;33.50;;;;;;6296864;22;20165;-82
2021/04/05 07:16:47;;;;;;;13.25;7.20;;;9.20;33.40;;;;;;6295674;22;20165;-81
2021/04/05 07:19:31;;;;;;;12.50;7.35;;;9.30;33.40;;;;;;6300586;22;20160;-82
2021/04/05 07:22:11;;;;;;;16.42;6.80;;;9.50;33.20;;;;;;6300996;22;20219;-83
2021/04/05 07:24:47;;;;;;;15.32;8.60;;;9.50;32.80;;;;;;6301732;22;20232;-83
2021/04/05 07:27:16;;;;;;;12.45;8.15;;;9.40;33.30;;;;;;6301350;22;20200;-79
2021/04/05 07:29:52;;;;;;;17.48;9.68;;;9.40;34.20;;;;;;6302257;22;20191;-82
2021/04/05 07:32:29;;;;;;;19.85;9.27;;;9.20;34.80;;;;;;6301237;22;20185;-81
2021/04/05 07:35:04;;;;;;;19.48;8.88;;;9.20;35.20;;;;;;6299767;22;20321;-82
2021/04/05 07:37:43;;;;;;;20.85;9.73;;;9.30;34.90;;;;;;6295277;22;20176;-79
2021/04/05 07:40:22;;;;;;;14.32;9.32;;;9.30;35.10;;;;;;6293649;22;20169;-80
2021/04/05 07:42:55;;;;;;;20.38;9.82;;;9.20;35.40;;;;;;6295999;22;20203;-81
2021/04/05 07:45:25;;;;;;;18.08;10.45;;;9.40;35.30;;;;;;6297500;22;20181;-80
2021/04/05 07:48:10;;;;;;;15.07;10.05;;;9.60;35.10;;;;;;6294328;22;20173;-80
2021/04/05 07:50:41;;;;;;;19.05;10.07;;;9.50;35.10;;;;;;6293476;22;20185;-80
2021/04/05 07:53:17;;;;;;;17.90;11.10;;;9.50;35.70;;;;;;6295085;22;20185;-80
2021/04/05 07:55:45;;;;;;;20.27;10.50;;;9.50;36.00;;;;;;6293424;22;20161;-80
2021/04/05 07:58:16;;;;;;;18.40;11.40;;;9.50;35.90;;;;;;6291688;22;20514;-80
2021/04/05 08:00:50;;;;;;;19.52;10.90;;;9.60;36.10;;;;;;6292738;22;20177;-80
2021/04/05 08:03:46;;;;;;;22.33;11.55;;;9.60;36.00;;;;;;6295400;22;20208;-80
2021/04/05 08:06:15;;;;;;;29.90;12.57;;;9.70;35.90;;;;;;6301360;22;20313;-80
2021/04/05 08:08:48;;;;;;;24.13;11.80;;;9.80;35.80;;;;;;6298688;22;20169;-81
2021/04/05 08:11:53;;;;;;;22.45;12.20;;;9.90;35.80;;;;;;6288931;22;20193;-80
2021/04/05 08:14:34;;;;;;;18.63;11.77;;;9.90;36.00;;;;;;6289355;22;20745;-80
2021/04/05 08:17:12;;;;;;;31.10;12.75;;;9.90;36.10;;;;;;6292938;22;20233;-80
2021/04/05 08:19:46;;;;;;;27.52;12.60;;;9.80;36.30;;;;;;6292668;22;20194;-82
2021/04/05 08:22:37;;;;;;;18.95;10.57;;;9.90;36.30;;;;;;6291069;22;20197;-80
2021/04/05 08:25:13;;;;;;;28.38;12.63;;;10.00;35.00;;;;;;6300113;22;20184;-79
2021/04/05 08:27:48;;;;;;;29.75;12.60;;;10.10;34.80;;;;;;6300540;22;20180;-80
2021/04/05 08:30:21;;;;;;;23.25;12.20;;;10.00;35.20;;;;;;6295815;22;20175;-79
2021/04/05 08:32:58;;;;;;;22.30;11.40;;;10.00;35.30;;;;;;6301613;22;20219;-81
2021/04/05 08:35:42;;;;;;;29.35;13.90;;;10.10;34.60;;;;;;6302127;22;20217;-79
2021/04/05 08:38:25;;;;;;;21.25;11.93;;;10.10;34.60;;;;;;6297638;22;20180;-80
2021/04/05 08:41:03;;;;;;;22.25;12.27;;;10.20;34.30;;;;;;6288816;22;20157;-80
2021/04/05 08:43:37;;;;;;;20.17;11.80;;;10.20;34.20;;;;;;6293398;22;20524;-80
2021/04/05 08:46:12;;;;;;;22.13;12.63;;;10.30;34.20;;;;;;6299536;22;20243;-80
2021/04/05 08:48:42;;;;;;;22.55;11.45;;;10.40;33.60;;;;;;6293742;22;20205;-80
2021/04/05 08:51:11;;;;;;;17.92;11.30;;;10.40;33.20;;;;;;6291021;22;20188;-81
2021/04/05 08:53:42;;;;;;;24.48;12.30;;;10.40;33.20;;;;;;6290098;22;20201;-80
2021/04/05 08:56:12;;;;;;;22.35;11.80;;;10.40;33.20;;;;;;6292720;22;20161;-80
2021/04/05 08:58:45;;;;;;;21.38;11.52;;;10.60;33.10;;;;;;6289066;22;20213;-81
2021/04/05 09:01:16;;;;;;;22.02;11.32;;;10.60;33.00;;;;;;6288809;22;20184;-80
2021/04/05 09:03:46;;;;;;;20.80;10.85;;;10.70;32.60;;;;;;6294216;22;20200;-80
2021/04/05 09:06:16;;;;;;;15.50;10.50;;;11.10;32.70;;;;;;6294874;22;20256;-80
2021/04/05 09:08:45;;;;;;;22.58;11.15;;;11.30;30.70;;;;;;6294301;22;20181;-78
2021/04/05 09:11:14;;;;;;;23.45;11.43;;;11.50;30.80;;;;;;6292715;22;20185;-79
2021/04/05 09:13:44;;;;;;;25.40;10.95;;;11.30;30.70;;;;;;6294096;22;20213;-79
2021/04/05 09:16:57;;;;;;;20.88;10.63;;;11.20;30.60;;;;;;6292033;22;20522;-79
2021/04/05 09:20:03;;;;;;;18.67;10.52;;;11.30;30.70;;;;;;6291990;22;20158;-79
2021/04/05 09:23:08;;;;;;;20.40;10.38;;;11.60;30.90;;;;;;6293675;22;20243;-80
2021/04/05 09:25:55;;;;;;;26.73;9.45;;;11.90;29.60;;;;;;6294148;22;20196;-81
2021/04/05 09:28:55;;;;;;;23.77;10.82;;;12.20;28.80;;;;;;6290960;22;20165;-82
2021/04/05 09:31:46;;;;;;;20.38;10.20;;;12.20;27.70;;;;;;6283203;22;20181;-81
2021/04/05 09:34:33;;;;;;;21.80;9.48;;;12.00;27.80;;;;;;6289439;22;20252;-80
2021/04/05 09:37:28;;;;;;;17.80;9.63;;;12.00;27.30;;;;;;6290338;22;20166;-81
2021/04/05 09:40:31;;;;;;;25.35;9.32;;;11.90;27.70;;;;;;6294399;22;20184;-80
2021/04/05 09:44:06;;;;;;;15.30;10.20;;;11.80;27.70;;;;;;6296075;22;20553;-80
2021/04/05 09:46:58;;;;;;;17.60;9.00;;;12.00;27.60;;;;;;6291542;22;20204;-81
2021/04/05 09:49:38;;;;;;;15.00;8.43;;;12.10;26.80;;;;;;6290494;22;20188;-81
2021/04/05 09:52:33;;;;;;;15.52;9.30;;;12.20;26.50;;;;;;6299039;22;20189;-81
2021/04/05 09:55:04;;;;;;;16.05;9.45;;;12.30;26.60;;;;;;6292228;22;20153;-80
2021/04/05 09:57:36;;;;;;;17.55;8.02;;;12.30;26.60;;;;;;6286005;22;20162;-82
2021/04/05 10:00:09;;;;;;;20.17;9.40;;;12.50;26.60;;;;;;6287310;22;20191;-81
2021/04/05 10:02:43;;;;;;;19.83;8.77;;;12.60;26.00;;;;;;6289437;22;20201;-80
2021/04/05 10:05:12;;;;;;;17.98;9.75;;;12.70;25.80;;;;;;6294287;22;20177;-80
2021/04/05 10:07:41;;;;;;;17.08;8.90;;;12.70;26.10;;;;;;6292478;22;20228;-81
2021/04/05 10:10:12;;;;;;;22.20;9.52;;;12.80;26.10;;;;;;6293130;22;20173;-80
2021/04/05 10:12:38;;;;;;;18.63;9.65;;;12.70;26.10;;;;;;6291954;22;20208;-80
2021/04/05 10:15:07;;;;;;;25.48;9.02;;;12.60;26.20;;;;;;6291196;22;20234;-81
2021/04/05 10:17:35;;;;;;;17.92;10.50;;;12.60;26.50;;;;;;6290796;22;20177;-80
2021/04/05 10:20:06;;;;;;;20.23;10.18;;;12.70;26.70;;;;;;6286528;22;20198;-81
2021/04/05 10:22:39;;;;;;;19.92;10.10;;;12.80;26.70;;;;;;6287149;22;20184;-81
2021/04/05 10:25:08;;;;;;;18.27;9.55;;;12.80;26.80;;;;;;6299876;22;20161;-80
2021/04/05 10:27:36;;;;;;;17.02;9.35;;;12.70;27.30;;;;;;6300784;22;20185;-81
2021/04/05 10:30:04;;;;;;;30.13;10.43;;;12.60;27.50;;;;;;6300200;22;20185;-81
2021/04/05 10:32:31;;;;;;;15.98;10.85;;;12.40;28.20;;;;;;6292877;22;20201;-79
2021/04/05 10:34:59;;;;;;;18.65;10.68;;;12.00;29.20;;;;;;6294946;22;20271;-81
2021/04/05 10:37:32;;;;;;;22.52;10.52;;;11.70;29.90;;;;;;6298670;22;20233;-81
2021/04/05 10:39:59;;;;;;;17.00;11.48;;;11.60;30.90;;;;;;6299479;22;20165;-80
2021/04/05 10:42:31;;;;;;;21.20;11.02;;;11.70;31.00;;;;;;6301639;22;20201;-81
2021/04/05 10:45:04;;;;;;;18.30;10.15;;;11.80;31.10;;;;;;6303039;22;20235;-81
2021/04/05 10:47:39;;;;;;;21.83;11.45;;;11.80;31.10;;;;;;6302342;22;20181;-81
2021/04/05 10:50:08;;;;;;;15.60;10.73;;;11.90;31.20;;;;;;6301838;22;20169;-80
2021/04/05 10:52:40;;;;;;;27.90;12.10;;;12.00;31.30;;;;;;6300868;22;20257;-80
2021/04/05 10:55:16;;;;;;;25.23;12.20;;;11.70;31.00;;;;;;6301893;22;20379;-80
2021/04/05 10:57:45;;;;;;;20.20;12.00;;;11.60;30.90;;;;;;6293949;22;20175;-80
2021/04/05 11:00:18;;;;;;;19.10;11.98;;;11.50;30.80;;;;;;6290299;22;20181;-81
2021/04/05 11:02:49;;;;;;;22.05;11.48;;;11.40;31.60;;;;;;6286753;22;20204;-81
2021/04/05 11:05:20;;;;;;;23.00;11.30;;;11.30;32.20;;;;;;6286093;22;20560;-80
2021/04/05 11:07:59;;;;;;;22.98;11.43;;;11.40;31.10;;;;;;6289930;22;20172;-79
2021/04/05 11:10:28;;;;;;;20.55;11.50;;;11.40;31.50;;;;;;6302530;22;20149;-80
2021/04/05 11:12:57;;;;;;;21.17;10.98;;;11.30;31.90;;;;;;6301629;22;20230;-79
2021/04/05 11:15:27;;;;;;;22.05;11.70;;;11.20;31.50;;;;;;6301709;22;20176;-80
2021/04/05 11:17:55;;;;;;;24.17;11.63;;;11.30;31.50;;;;;;6301088;22;20170;-80
2021/04/05 11:20:29;;;;;;;24.42;11.20;;;11.40;31.40;;;;;;6288315;22;20189;-80
2021/04/05 11:23:01;;;;;;;23.95;12.15;;;11.60;30.90;;;;;;6285150;22;20259;-80
2021/04/05 11:25:33;;;;;;;21.30;11.32;;;11.60;30.90;;;;;;6289499;22;20183;-80
2021/04/05 11:28:08;;;;;;;23.80;10.75;;;11.50;30.80;;;;;;6282981;22;20166;-79
2021/04/05 11:30:38;;;;;;;17.85;10.57;;;11.30;30.70;;;;;;6285188;22;20165;-80
2021/04/05 11:33:08;;;;;;;16.65;9.73;;;11.30;30.70;;;;;;6284990;22;20208;-79
2021/04/05 11:35:37;;;;;;;15.55;10.40;;;11.10;30.50;;;;;;6300092;22;20165;-79
2021/04/05 11:38:07;;;;;;;22.90;11.13;;;11.00;31.30;;;;;;6300399;22;20189;-80
2021/04/05 11:40:36;;;;;;;19.70;11.10;;;11.00;31.90;;;;;;6294767;22;20529;-78
2021/04/05 11:43:03;;;;;;;18.52;10.40;;;11.00;32.40;;;;;;6301081;22;20208;-81
2021/04/05 11:45:32;;;;;;;17.98;10.23;;;11.00;32.20;;;;;;6301317;22;20161;-78
2021/04/05 11:48:03;;;;;;;20.80;10.95;;;10.90;32.10;;;;;;6285376;22;20178;-79
2021/04/05 11:50:30;;;;;;;25.58;10.88;;;10.90;32.30;;;;;;6283482;22;20166;-80
2021/04/05 11:53:05;;;;;;;25.98;11.77;;;10.80;32.30;;;;;;6281986;22;20197;-82
2021/04/05 11:55:35;;;;;;;21.63;11.50;;;10.70;32.30;;;;;;6282551;22;20753;-79
2021/04/05 11:58:05;;;;;;;17.92;10.27;;;10.60;32.50;;;;;;6284263;22;20165;-80
2021/04/05 12:00:38;;;;;;;20.45;11.32;;;10.60;32.30;;;;;;6284427;22;20177;-81
2021/04/05 12:03:14;;;;;;;21.10;11.02;;;10.60;32.50;;;;;;6284497;22;20209;-80
2021/04/05 12:05:43;;;;;;;20.20;10.05;;;10.50;32.20;;;;;;6290270;22;20176;-80
2021/04/05 12:08:13;;;;;;;19.60;9.80;;;10.50;32.50;;;;;;6294032;22;20207;-81
2021/04/05 12:10:44;;;;;;;21.42;10.13;;;10.50;32.80;;;;;;6298984;22;20149;-80
2021/04/05 12:13:16;;;;;;;19.25;10.63;;;10.60;32.70;;;;;;6300466;22;20286;-80
2021/04/05 12:15:44;;;;;;;14.27;10.30;;;10.60;32.40;;;;;;6298534;22;20157;-80
2021/04/05 12:18:12;;;;;;;11.00;8.55;;;10.70;32.10;;;;;;6297070;22;20181;-80
2021/04/05 12:20:39;;;;;;;15.50;8.98;;;10.80;31.90;;;;;;6295659;22;20196;-83
2021/04/05 12:23:08;;;;;;;16.17;9.65;;;10.70;32.00;;;;;;6294604;22;20205;-82
2021/04/05 12:25:36;;;;;;;13.77;8.18;;;10.70;31.80;;;;;;6295429;22;20173;-80
2021/04/05 12:28:06;;;;;;;14.77;8.18;;;10.60;32.00;;;;;;6291950;22;20181;-81
2021/04/05 12:30:33;;;;;;;13.30;8.15;;;10.60;32.00;;;;;;6293128;22;20181;-82
2021/04/05 12:33:02;;;;;;;16.15;8.68;;;10.50;32.10;;;;;;6291760;22;20200;-81
2021/04/05 12:35:29;;;;;;;13.85;7.47;;;10.40;32.30;;;;;;6292649;22;20181;-81
2021/04/05 12:37:57;;;;;;;14.38;8.23;;;10.40;32.30;;;;;;6297726;22;20181;-81
2021/04/05 12:40:26;;;;;;;11.95;7.80;;;10.40;32.60;;;;;;6301072;22;20176;-81
2021/04/05 12:42:55;;;;;;;13.50;7.70;;;10.40;33.10;;;;;;6297989;22;20200;-82
2021/04/05 12:45:23;;;;;;;15.70;8.40;;;10.30;32.60;;;;;;6292001;22;20183;-82
2021/04/05 12:47:51;;;;;;;13.23;8.45;;;10.30;32.70;;;;;;6290389;22;20670;-81
2021/04/05 12:50:24;;;;;;;9.73;7.75;;;10.30;33.00;;;;;;6296022;22;20290;-80
2021/04/05 12:52:52;;;;;;;13.57;7.88;;;10.30;33.20;;;;;;6289886;22;20201;-80
2021/04/05 12:55:20;;;;;;;17.38;8.10;;;10.30;33.10;;;;;;6286689;22;20566;-81
2021/04/05 12:57:47;;;;;;;14.75;8.57;;;10.20;33.30;;;;;;6293676;22;20642;-82
2021/04/05 13:00:25;;;;;;;13.45;8.68;;;10.20;33.40;;;;;;6287955;22;20383;-82
2021/04/05 13:02:59;;;;;;;16.40;8.60;;;10.20;33.40;;;;;;6287278;22;20224;-81
2021/04/05 13:05:34;;;;;;;12.57;8.68;;;10.20;33.60;;;;;;6290024;22;20164;-83
2021/04/05 13:08:06;;;;;;;16.40;8.80;;;10.20;33.80;;;;;;6285697;22;20165;-81
2021/04/05 13:10:40;;;;;;;14.70;8.27;;;10.20;34.10;;;;;;6285828;22;20583;-81